createdAt,value
2023-05-05T00:00:12.448Z,17.9
2023-05-05T00:06:05.817Z,17.9
2023-05-05T00:11:57.459Z,17.8
2023-05-05T00:17:49.698Z,17.8
2023-05-05T00:23:42.153Z,17.8
2023-05-05T00:29:35.978Z,17.8
2023-05-05T00:35:28.632Z,17.8
2023-05-05T00:41:20.151Z,17.8
2023-05-05T00:47:11.631Z,17.8
2023-05-05T00:53:04.020Z,17.8
2023-05-05T00:58:55.840Z,17.8
2023-05-05T01:04:47.481Z,17.8
2023-05-05T01:10:53.998Z,17.8
2023-05-05T01:16:46.303Z,17.7
2023-05-05T01:22:37.721Z,17.7
2023-05-05T01:28:28.897Z,17.7
2023-05-05T01:34:20.673Z,17.7
2023-05-05T01:39:56.396Z,17.6
2023-05-05T01:45:48.004Z,17.6
2023-05-05T01:51:25.384Z,17.6
2023-05-05T01:57:16.109Z,17.6
2023-05-05T02:03:08.726Z,17.6
2023-05-05T02:09:00.610Z,17.6
2023-05-05T02:14:52.273Z,17.6
2023-05-05T02:20:44.562Z,17.5
2023-05-05T02:26:36.306Z,17.5
2023-05-05T02:32:27.581Z,17.5
2023-05-05T02:38:19.809Z,17.5
2023-05-05T02:44:11.215Z,17.4
2023-05-05T02:49:46.604Z,17.4
2023-05-05T02:55:22.954Z,17.4
2023-05-05T03:01:14.667Z,17.4
2023-05-05T03:07:06.875Z,17.4
2023-05-05T03:12:43.286Z,17.4
2023-05-05T03:18:35.204Z,17.4
2023-05-05T03:24:28.308Z,17.3
2023-05-05T03:30:20.671Z,17.3
2023-05-05T03:36:13.396Z,17.3
2023-05-05T03:42:04.642Z,17.3
2023-05-05T03:47:41.785Z,17.3
2023-05-05T03:53:17.962Z,17.3
2023-05-05T03:59:08.909Z,17.3
2023-05-05T04:05:03.668Z,17.3
2023-05-05T04:10:54.879Z,17.2
2023-05-05T04:16:45.977Z,17.2
2023-05-05T04:22:37.458Z,17.2
2023-05-05T04:28:13.514Z,17.2
2023-05-05T04:33:49.165Z,17.2
2023-05-05T04:38:55.081Z,17.1
2023-05-05T04:44:32.378Z,17.1
2023-05-05T04:49:53.339Z,17.1
2023-05-05T04:55:29.963Z,17.1
2023-05-05T05:01:06.309Z,17.1
2023-05-05T05:06:27.560Z,17.1
2023-05-05T05:11:48.596Z,17.1
2023-05-05T05:17:09.879Z,17.1
2023-05-05T05:23:01.308Z,17.1
2023-05-05T05:28:35.879Z,17.1
2023-05-05T05:34:13.100Z,17.1
2023-05-05T05:45:24.315Z,17.1
2023-05-05T06:01:59.381Z,17.1
2023-05-05T07:18:28.632Z,16.9
2023-05-05T07:34:52.906Z,16.9
2023-05-05T07:40:29.107Z,16.9
2023-05-05T07:46:09.394Z,16.9
2023-05-05T07:51:46.015Z,16.9
2023-05-05T07:57:40.265Z,16.9
2023-05-05T08:08:41.786Z,16.9
2023-05-05T08:14:18.296Z,16.9
2023-05-05T08:20:08.163Z,16.9
2023-05-05T08:25:45.208Z,16.9
2023-05-05T08:31:21.908Z,16.9
2023-05-05T08:36:59.535Z,16.9
2023-05-05T08:42:53.053Z,16.9
2023-05-05T08:48:31.654Z,16.9
2023-05-05T08:54:09.536Z,16.9
2023-05-05T08:59:30.686Z,16.9
2023-05-05T09:05:08.155Z,16.9
2023-05-05T09:10:30.155Z,16.9
2023-05-05T09:15:34.791Z,16.9
2023-05-05T09:20:40.542Z,16.9
2023-05-05T09:26:05.139Z,16.9
2023-05-05T09:31:25.800Z,16.9
2023-05-05T09:42:10.249Z,16.9
2023-05-05T09:48:02.265Z,16.9
2023-05-05T10:09:43.847Z,16.9
2023-05-05T10:15:21.211Z,16.9
2023-05-05T11:54:15.293Z,17.1
2023-05-05T12:04:59.539Z,17.1
2023-05-05T12:10:40.491Z,17.1
2023-05-05T12:21:25.215Z,17.1
2023-05-05T12:27:17.594Z,17.1
2023-05-05T12:32:56.134Z,17.1
2023-05-05T12:38:17.455Z,17.1
2023-05-05T12:43:39.664Z,17.1
2023-05-05T12:49:03.957Z,17.1
2023-05-05T12:54:40.894Z,17.1
2023-05-05T13:00:34.395Z,17.1
2023-05-05T13:05:58.038Z,17.1
2023-05-05T13:11:50.987Z,17.1
2023-05-05T13:17:46.090Z,17.1
2023-05-05T13:23:38.169Z,17.1
2023-05-05T13:29:56.397Z,17.1
2023-05-05T13:35:35.195Z,17.1
2023-05-05T13:41:26.808Z,17.1
2023-05-05T13:47:19.046Z,17.1
2023-05-05T13:52:56.531Z,17.1
2023-05-05T13:58:51.851Z,17.1
2023-05-05T14:04:47.957Z,17.1
2023-05-05T14:10:42.245Z,17.1
2023-05-05T14:16:34.726Z,17.1
2023-05-05T14:22:12.652Z,17.1
2023-05-05T14:28:07.201Z,17.1
2023-05-05T14:34:00.167Z,17.1
2023-05-05T14:39:54.601Z,17.1
2023-05-05T14:45:48.641Z,17.1
2023-05-05T14:51:41.771Z,17.1
2023-05-05T14:57:46.249Z,17.1
2023-05-05T15:03:41.547Z,17.1
2023-05-05T15:09:36.998Z,17.2
2023-05-05T15:15:30.925Z,17.2
2023-05-05T15:21:10.845Z,17.2
2023-05-05T15:26:48.749Z,17.1
2023-05-05T15:32:26.767Z,17.2
2023-05-05T15:38:21.174Z,17.2
2023-05-05T15:44:15.245Z,17.2
2023-05-05T15:50:10.683Z,17.2
2023-05-05T15:55:53.213Z,17.2
2023-05-05T16:01:49.019Z,17.2
2023-05-05T16:07:29.527Z,17.2
2023-05-05T16:13:25.444Z,17.2
2023-05-05T16:19:21.060Z,17.2
2023-05-05T16:25:01.754Z,17.2
2023-05-05T16:30:42.134Z,17.2
2023-05-05T16:36:22.590Z,17.2
2023-05-05T16:42:03.853Z,17.2
2023-05-05T16:47:59.855Z,17.2
2023-05-05T16:53:55.356Z,17.2
2023-05-05T16:59:19.890Z,17.2
2023-05-05T17:04:46.199Z,17.2
2023-05-05T17:10:27.025Z,17.2
2023-05-05T17:16:09.018Z,17.2
2023-05-05T17:22:07.106Z,17.3
2023-05-05T17:28:06.032Z,17.2
2023-05-05T17:34:04.712Z,17.2
2023-05-05T17:40:03.124Z,17.2
2023-05-05T17:46:00.679Z,17.2
2023-05-05T17:51:59.574Z,17.3
2023-05-05T17:57:58.356Z,17.3
2023-05-05T18:03:58.702Z,17.2
2023-05-05T18:09:56.688Z,17.2
2023-05-05T18:15:56.735Z,17.3
2023-05-05T18:21:53.776Z,17.3
2023-05-05T18:28:05.622Z,17.2
2023-05-05T18:34:05.819Z,17.3
2023-05-05T18:40:03.815Z,17.2
2023-05-05T18:46:01.602Z,17.2
2023-05-05T18:52:02.643Z,17.2
2023-05-05T18:58:01.554Z,17.2
2023-05-05T19:03:59.929Z,17.2
2023-05-05T19:10:36.166Z,17.2
2023-05-05T19:16:35.184Z,17.3
2023-05-05T19:22:36.384Z,17.2
2023-05-05T19:28:34.802Z,17.2
2023-05-05T19:34:34.576Z,17.2
2023-05-05T19:40:33.465Z,17.2
2023-05-05T19:46:31.044Z,17.2
2023-05-05T19:52:30.254Z,17.2
2023-05-05T19:58:28.327Z,17.2
2023-05-05T20:04:28.120Z,17.2
2023-05-05T20:10:25.537Z,17.2
2023-05-05T20:16:25.016Z,17.2
2023-05-05T20:22:23.206Z,17.2
2023-05-05T20:28:22.048Z,17.1
2023-05-05T20:34:20.651Z,17.2
2023-05-05T20:40:19.326Z,17.1
2023-05-05T20:46:16.458Z,17.1
2023-05-05T20:52:20.159Z,17.1
2023-05-05T20:58:19.467Z,17.1
2023-05-05T21:04:19.170Z,17.1
2023-05-05T21:10:17.332Z,17.1
2023-05-05T21:16:15.297Z,17.1
2023-05-05T21:22:13.105Z,17.1
2023-05-05T21:28:11.189Z,17.1
2023-05-05T21:34:27.567Z,17.1
2023-05-05T21:40:25.465Z,17.1
2023-05-05T21:46:23.113Z,17.1
2023-05-05T21:52:19.769Z,17.1
2023-05-05T21:58:15.776Z,17.1
2023-05-05T22:03:56.596Z,17.1
2023-05-05T22:09:51.648Z,17.1
2023-05-05T22:15:53.185Z,17.1
2023-05-05T22:21:47.835Z,17.1
2023-05-05T22:27:42.220Z,17.1
2023-05-05T22:33:38.453Z,17.1
2023-05-05T22:39:16.766Z,17.1
2023-05-05T22:45:11.305Z,17.1
2023-05-05T22:50:49.675Z,17.1
2023-05-05T22:56:43.793Z,17.1
2023-05-05T23:02:37.868Z,17.1
2023-05-05T23:08:31.149Z,17.1
2023-05-05T23:14:24.550Z,17.1
2023-05-05T23:20:17.491Z,17.1
